Time;durP1;ratioP1;P1;durP2;ratioP2;P2;SDS_P1;SDS_P2;PMS_P1;PMS_P2;Temp;Humidity;BMP_temperature;BMP_pressure;BME280_temperature;BME280_humidity;BME280_pressure;Samples;Min_cycle;Max_cycle;Signal;HPM_P1;HPM_P2
2024/03/25 00:01:52;;;;;;;18.60;12.70;;;;;;;4.58;87.95;98575.45;105980;1253;61218;-80
2024/03/25 00:04:22;;;;;;;19.30;13.40;;;;;;;4.48;88.03;98578.27;106385;1256;73503;-81
2024/03/25 00:06:49;;;;;;;34.80;22.20;;;;;;;4.38;88.38;98577.89;107608;1257;69534;-79
2024/03/25 00:09:17;;;;;;;12.00;8.30;;;;;;;4.29;88.36;98581.06;107104;1259;71423;-77
2024/03/25 00:11:44;;;;;;;13.50;8.20;;;;;;;4.21;88.68;98575.57;107763;1253;61233;-80
2024/03/25 00:14:11;;;;;;;16.60;11.30;;;;;;;4.24;88.62;98572.48;106779;1259;61303;-80
2024/03/25 00:16:39;;;;;;;19.30;12.30;;;;;;;4.29;88.95;98568.81;106144;1262;74752;-78
2024/03/25 00:19:06;;;;;;;17.50;11.10;;;;;;;4.27;89.21;98566.76;108761;1254;69352;-80
2024/03/25 00:21:33;;;;;;;12.50;9.00;;;;;;;4.24;89.18;98567.36;108183;1254;73602;-79
2024/03/25 00:24:01;;;;;;;10.40;7.60;;;;;;;4.20;89.39;98564.95;106585;1258;61314;-80
2024/03/25 00:26:28;;;;;;;24.20;16.20;;;;;;;4.27;89.16;98560.91;106074;1260;61112;-81
2024/03/25 00:28:55;;;;;;;29.00;20.10;;;;;;;4.35;89.04;98557.43;106335;1259;74671;-81
2024/03/25 00:31:22;;;;;;;29.20;20.10;;;;;;;4.37;89.56;98558.50;105973;1256;68982;-79
2024/03/25 00:33:50;;;;;;;28.40;20.40;;;;;;;4.36;89.63;98552.31;105896;1260;72508;-80
2024/03/25 00:36:17;;;;;;;29.80;19.50;;;;;;;4.33;89.46;98552.40;105790;1258;61427;-81
2024/03/25 00:38:44;;;;;;;30.70;20.70;;;;;;;4.38;88.95;98549.30;105929;1257;61266;-80
2024/03/25 00:41:12;;;;;;;28.30;19.60;;;;;;;4.43;88.89;98550.14;106163;1259;74579;-80
2024/03/25 00:43:39;;;;;;;26.10;18.10;;;;;;;4.40;88.94;98548.34;105933;1254;70227;-80
2024/03/25 00:46:06;;;;;;;26.20;17.80;;;;;;;4.32;88.86;98546.24;105751;1259;73057;-81
2024/03/25 00:48:33;;;;;;;25.90;17.90;;;;;;;4.21;88.89;98540.52;105926;1255;61797;-78
2024/03/25 00:51:01;;;;;;;22.00;15.60;;;;;;;4.16;89.21;98547.33;105864;1257;62076;-80
2024/03/25 00:53:28;;;;;;;14.60;11.20;;;;;;;4.21;89.14;98544.55;105855;1255;73456;-80
2024/03/25 00:55:56;;;;;;;12.60;8.20;;;;;;;4.24;88.95;98543.67;106002;1253;70037;-79
2024/03/25 00:58:23;;;;;;;9.00;6.60;;;;;;;4.20;89.06;98546.35;105772;1257;73224;-79
2024/03/25 01:00:51;;;;;;;9.00;6.10;;;;;;;4.14;89.23;98551.05;105736;1257;61261;-78
2024/03/25 01:03:18;;;;;;;9.40;7.40;;;;;;;4.06;89.49;98554.27;105650;1254;61496;-79
2024/03/25 01:05:45;;;;;;;8.30;5.80;;;;;;;4.09;89.50;98549.77;106018;1259;73781;-80
2024/03/25 01:08:13;;;;;;;8.70;5.80;;;;;;;4.16;89.50;98548.04;105837;1261;70477;-79
2024/03/25 01:10:40;;;;;;;8.80;6.80;;;;;;;4.13;89.56;98539.36;107358;1258;72506;-80
2024/03/25 01:13:08;;;;;;;8.90;6.60;;;;;;;4.15;90.37;98530.62;107914;1259;61282;-78
2024/03/25 01:15:35;;;;;;;8.80;6.80;;;;;;;4.21;90.76;98528.27;107554;1260;61123;-79
2024/03/25 01:18:03;;;;;;;6.90;5.00;;;;;;;4.36;90.08;98524.66;106897;1259;73557;-80
2024/03/25 01:20:30;;;;;;;9.70;6.80;;;;;;;4.45;89.68;98520.20;106859;1260;70469;-80
2024/03/25 01:22:57;;;;;;;9.30;7.10;;;;;;;4.43;89.16;98523.17;106554;1254;70937;-78
2024/03/25 01:25:25;;;;;;;8.30;6.10;;;;;;;4.38;89.26;98527.01;105997;1259;61202;-81
2024/03/25 01:27:52;;;;;;;8.30;6.70;;;;;;;4.31;89.11;98527.02;106681;1260;61400;-81
2024/03/25 01:30:20;;;;;;;8.40;6.20;;;;;;;4.35;89.15;98526.45;105945;1254;73378;-81
2024/03/25 01:32:48;;;;;;;8.40;5.80;;;;;;;4.45;89.27;98523.52;105981;1260;68723;-80
2024/03/25 01:35:16;;;;;;;9.00;6.40;;;;;;;4.46;89.29;98512.52;106040;1259;73102;-80
2024/03/25 01:37:43;;;;;;;9.40;7.00;;;;;;;4.43;89.12;98505.10;106042;1258;61253;-79
2024/03/25 01:40:10;;;;;;;9.50;6.90;;;;;;;4.38;89.02;98502.19;106728;1259;61223;-77
2024/03/25 01:42:38;;;;;;;10.70;6.90;;;;;;;4.40;88.76;98500.72;108312;1253;73859;-79
2024/03/25 01:45:06;;;;;;;11.00;7.40;;;;;;;4.41;88.18;98508.17;105884;1259;70147;-80
2024/03/25 01:47:35;;;;;;;10.70;7.50;;;;;;;4.31;88.25;98515.81;105803;1261;73967;-81
2024/03/25 01:50:03;;;;;;;9.90;8.20;;;;;;;4.22;88.66;98520.77;106012;1257;61350;-80
2024/03/25 01:52:31;;;;;;;11.50;8.60;;;;;;;4.13;88.72;98520.98;105839;1260;61154;-79
2024/03/25 01:54:59;;;;;;;11.10;7.90;;;;;;;4.05;88.83;98528.17;105933;1256;73440;-78
2024/03/25 01:57:26;;;;;;;8.80;7.00;;;;;;;4.07;89.00;98524.07;105964;1260;69971;-81
2024/03/25 01:59:54;;;;;;;8.30;6.30;;;;;;;4.17;88.88;98525.05;106009;1260;72485;-80
2024/03/25 02:02:22;;;;;;;11.50;8.10;;;;;;;4.16;89.29;98530.17;105888;1259;61423;-79
2024/03/25 02:04:49;;;;;;;12.10;7.80;;;;;;;4.14;89.56;98532.65;105948;1258;61333;-81
2024/03/25 02:07:16;;;;;;;12.30;8.50;;;;;;;4.08;89.46;98528.83;106374;1260;74688;-79
2024/03/25 02:09:43;;;;;;;11.90;7.70;;;;;;;4.00;89.25;98526.73;108042;1254;68998;-78
2024/03/25 02:12:11;;;;;;;9.10;7.30;;;;;;;4.07;89.39;98526.85;108175;1258;70279;-79
2024/03/25 02:14:39;;;;;;;13.20;7.80;;;;;;;4.19;89.17;98531.30;106658;1256;61285;-78
2024/03/25 02:17:06;;;;;;;10.70;8.10;;;;;;;4.22;89.39;98533.98;106885;1260;60014;-79
2024/03/25 02:19:33;;;;;;;10.10;7.30;;;;;;;4.21;89.16;98533.31;105848;1263;74727;-78
2024/03/25 02:22:00;;;;;;;9.30;6.80;;;;;;;4.19;89.00;98532.09;107652;1255;70014;-80
2024/03/25 02:24:28;;;;;;;12.10;7.60;;;;;;;4.20;88.22;98531.83;108354;1254;71372;-80
2024/03/25 02:26:55;;;;;;;9.80;7.60;;;;;;;4.22;87.95;98526.34;108464;1257;61214;-81
2024/03/25 02:29:22;;;;;;;11.50;8.00;;;;;;;4.21;88.64;98525.42;108319;1253;59474;-77
2024/03/25 02:31:52;;;;;;;12.70;8.50;;;;;;;4.19;88.56;98523.55;105987;1259;74893;-78
2024/03/25 02:34:20;;;;;;;11.80;7.80;;;;;;;4.17;89.18;98531.13;105703;1260;68297;-80
2024/03/25 02:36:48;;;;;;;10.70;8.00;;;;;;;4.25;89.07;98537.77;106632;1254;71723;-80
2024/03/25 02:39:15;;;;;;;12.80;7.90;;;;;;;4.32;88.52;98541.61;106227;1254;61307;-79
2024/03/25 02:41:43;;;;;;;12.10;7.70;;;;;;;4.26;88.04;98542.80;106099;1259;61231;-80
2024/03/25 02:44:10;;;;;;;14.20;10.60;;;;;;;4.16;88.17;98542.64;106127;1254;74614;-78
2024/03/25 02:46:40;;;;;;;20.40;14.50;;;;;;;4.04;87.80;98546.30;105998;1254;72822;-81
2024/03/25 02:49:07;;;;;;;20.30;15.10;;;;;;;3.92;87.98;98553.29;105957;1260;71132;-79
2024/03/25 02:51:34;;;;;;;25.00;16.80;;;;;;;3.93;87.80;98557.86;105578;1256;61272;-77
2024/03/25 02:54:01;;;;;;;23.30;16.50;;;;;;;3.95;87.68;98560.14;105896;1260;61311;-81
2024/03/25 02:56:29;;;;;;;37.40;25.50;;;;;;;3.93;88.52;98558.41;105799;1263;74644;-79
2024/03/25 02:58:56;;;;;;;38.90;27.40;;;;;;;3.94;89.43;98563.02;105992;1254;70020;-80
2024/03/25 03:01:23;;;;;;;34.50;21.70;;;;;;;3.98;89.56;98565.47;105974;1258;74923;-78
2024/03/25 03:03:51;;;;;;;28.60;20.70;;;;;;;4.09;89.32;98569.91;108601;1253;60330;-79
2024/03/25 03:06:18;;;;;;;21.50;15.90;;;;;;;4.22;88.50;98574.79;109191;1258;58953;-81
2024/03/25 03:08:46;;;;;;;23.30;16.70;;;;;;;4.24;88.22;98572.46;107958;1258;73351;-78
2024/03/25 03:11:13;;;;;;;15.90;10.20;;;;;;;4.20;87.86;98574.61;106117;1254;69253;-76
2024/03/25 03:13:40;;;;;;;14.20;9.50;;;;;;;4.08;87.06;98583.48;106636;1254;71398;-79
2024/03/25 03:16:07;;;;;;;13.50;8.70;;;;;;;3.97;87.01;98593.06;107625;1259;59834;-80
2024/03/25 03:18:35;;;;;;;10.80;8.10;;;;;;;4.01;87.09;98601.43;106105;1260;61330;-79
2024/03/25 03:21:03;;;;;;;12.90;9.50;;;;;;;4.05;86.78;98608.00;107893;1254;74583;-79
2024/03/25 03:23:30;;;;;;;12.90;9.00;;;;;;;3.99;86.80;98607.75;108218;1254;68984;-79
2024/03/25 03:25:59;;;;;;;16.70;11.40;;;;;;;3.96;87.20;98600.91;107197;1259;72028;-80
2024/03/25 03:28:28;;;;;;;12.60;8.90;;;;;;;3.93;87.15;98582.20;105142;1254;685844;-79
2024/03/25 03:33:31;;;;;;;14.80;10.80;;;;;;;4.07;87.69;98573.29;102742;1292;600617;-79
2024/03/25 03:35:58;;;;;;;19.50;12.10;;;;;;;4.17;87.75;98576.33;105245;1269;59793;-81
2024/03/25 03:38:26;;;;;;;22.90;13.20;;;;;;;4.20;87.38;98573.61;105074;1272;59635;-77
2024/03/25 03:41:01;;;;;;;18.40;13.30;;;;;;;4.14;86.96;98571.38;107363;1266;71793;-80
2024/03/25 03:43:29;;;;;;;22.00;15.20;;;;;;;4.11;87.22;98573.41;106946;1269;68877;-80
2024/03/25 03:45:56;;;;;;;22.10;14.70;;;;;;;4.08;86.91;98575.43;107605;1266;71432;-80
2024/03/25 03:48:23;;;;;;;24.10;15.60;;;;;;;4.13;86.70;98582.46;105933;1266;169156;-79
2024/03/25 03:50:51;;;;;;;24.00;15.20;;;;;;;4.19;86.61;98582.06;105926;1265;60154;-80
2024/03/25 03:53:18;;;;;;;25.00;18.10;;;;;;;4.21;87.08;98588.19;105867;1269;73033;-81
2024/03/25 03:56:02;;;;;;;25.40;17.30;;;;;;;4.20;87.15;98594.42;106597;1265;69025;-79
2024/03/25 03:58:29;;;;;;;18.80;13.40;;;;;;;4.14;86.61;98599.73;108237;1260;72724;-77
2024/03/25 04:00:56;;;;;;;21.30;13.60;;;;;;;4.08;86.44;98599.66;106709;1262;61713;-78
2024/03/25 04:03:24;;;;;;;20.90;15.10;;;;;;;4.11;86.39;98598.98;105980;1262;60451;-78
2024/03/25 04:05:51;;;;;;;15.90;11.20;;;;;;;4.21;86.49;98593.84;105584;1266;72629;-80
2024/03/25 04:08:18;;;;;;;18.90;12.10;;;;;;;4.25;87.14;98590.77;105309;1262;69321;-81
2024/03/25 04:10:46;;;;;;;20.40;14.50;;;;;;;4.25;86.82;98585.48;105323;1267;71468;-79
2024/03/25 04:13:13;;;;;;;24.10;15.50;;;;;;;4.24;87.10;98584.52;105237;1262;60424;-80
2024/03/25 04:15:41;;;;;;;15.70;10.50;;;;;;;4.23;86.93;98580.96;105306;1262;60549;-80
2024/03/25 04:18:09;;;;;;;15.70;9.90;;;;;;;4.30;86.77;98583.76;105814;1268;72660;-80
2024/03/25 04:20:37;;;;;;;15.70;10.00;;;;;;;4.36;86.52;98588.06;105548;1267;69279;-79
2024/03/25 04:23:06;;;;;;;12.70;8.90;;;;;;;4.35;86.72;98587.30;105496;1262;73667;-79
2024/03/25 04:25:34;;;;;;;11.30;8.90;;;;;;;4.34;86.36;98584.40;106347;1262;60486;-79
2024/03/25 04:28:02;;;;;;;14.60;9.90;;;;;;;4.32;85.86;98584.56;107283;1259;60338;-82
2024/03/25 04:30:29;;;;;;;16.00;9.00;;;;;;;4.31;85.67;98578.34;107620;1259;72674;-81
2024/03/25 04:32:56;;;;;;;15.80;10.40;;;;;;;4.42;85.35;98573.48;106559;1259;69707;-79
2024/03/25 04:35:23;;;;;;;15.40;11.00;;;;;;;4.51;85.24;98576.86;106134;1261;73037;-78
2024/03/25 04:37:51;;;;;;;17.40;12.30;;;;;;;4.50;84.79;98574.30;106374;1257;60539;-81
2024/03/25 04:40:19;;;;;;;15.10;11.50;;;;;;;4.47;84.78;98571.66;106426;1256;60444;-80
2024/03/25 04:42:47;;;;;;;19.70;14.30;;;;;;;4.46;84.90;98568.30;106379;1256;72589;-80
2024/03/25 04:45:14;;;;;;;19.90;14.10;;;;;;;4.45;84.67;98561.07;106133;1259;70013;-78
2024/03/25 04:47:41;;;;;;;21.60;14.50;;;;;;;4.53;84.57;98559.98;107620;1257;72820;-79
2024/03/25 04:50:09;;;;;;;21.60;14.70;;;;;;;4.64;84.13;98550.88;106311;1259;60651;-78
2024/03/25 04:52:36;;;;;;;23.00;16.10;;;;;;;4.64;84.26;98552.02;107167;1256;60343;-79
2024/03/25 04:55:04;;;;;;;24.90;17.10;;;;;;;4.63;84.46;98553.43;108655;1255;72742;-80
2024/03/25 04:57:31;;;;;;;22.10;15.60;;;;;;;4.62;84.20;98557.67;108047;1256;67749;-82
2024/03/25 04:59:58;;;;;;;19.60;14.30;;;;;;;4.63;83.85;98563.40;105862;1261;72823;-82
2024/03/25 05:02:25;;;;;;;17.90;12.10;;;;;;;4.73;83.85;98557.64;106201;1262;60933;-81
2024/03/25 05:04:53;;;;;;;16.50;12.40;;;;;;;4.80;83.27;98552.86;105906;1257;60540;-82
2024/03/25 05:07:20;;;;;;;16.20;9.10;;;;;;;4.78;83.18;98554.25;105626;1256;73950;-79
2024/03/25 05:09:47;;;;;;;13.80;9.00;;;;;;;4.74;82.94;98557.14;106050;1256;70511;-80
2024/03/25 05:12:14;;;;;;;17.20;9.30;;;;;;;4.71;83.26;98555.48;106970;1258;71497;-80
2024/03/25 05:14:41;;;;;;;13.00;8.40;;;;;;;4.71;82.59;98557.44;106187;1256;61055;-80
2024/03/25 05:17:09;;;;;;;14.70;9.40;;;;;;;4.78;82.84;98557.23;105990;1259;60432;-80
2024/03/25 05:19:36;;;;;;;15.70;10.60;;;;;;;4.86;82.64;98559.23;106021;1256;72697;-78
2024/03/25 05:22:03;;;;;;;15.40;9.60;;;;;;;4.88;83.41;98561.08;107217;1255;70415;-81
2024/03/25 05:24:30;;;;;;;12.50;8.80;;;;;;;4.92;83.52;98563.02;108547;1256;71270;-79
2024/03/25 05:26:58;;;;;;;16.90;9.70;;;;;;;4.93;83.70;98559.52;106741;1256;60512;-80
2024/03/25 05:29:25;;;;;;;11.90;8.40;;;;;;;4.98;83.57;98558.34;106352;1259;60425;-79
2024/03/25 05:32:02;;;;;;;11.90;7.90;;;;;;;5.10;83.36;98559.88;107659;1256;73873;-80
2024/03/25 05:34:31;;;;;;;10.60;7.70;;;;;;;5.21;82.94;98564.48;107418;1256;69028;-80
2024/03/25 05:36:58;;;;;;;11.90;8.00;;;;;;;5.23;83.08;98563.39;106301;1256;71107;-82
2024/03/25 05:39:26;;;;;;;12.70;8.40;;;;;;;5.24;82.94;98566.29;106401;1259;60423;-80
2024/03/25 05:41:53;;;;;;;15.30;9.00;;;;;;;5.26;82.81;98569.65;107275;1256;60340;-80
2024/03/25 05:44:20;;;;;;;12.20;7.90;;;;;;;5.28;82.65;98571.48;107956;1256;72569;-78
2024/03/25 05:46:48;;;;;;;13.60;7.90;;;;;;;5.40;82.39;98569.70;108258;1258;69431;-81
2024/03/25 05:49:16;;;;;;;18.40;7.50;;;;;;;5.51;82.33;98570.31;108797;1256;71856;-79
2024/03/25 05:51:44;;;;;;;11.10;7.30;;;;;;;5.54;82.39;98564.39;109155;1256;58952;-78
2024/03/25 05:54:11;;;;;;;11.80;8.00;;;;;;;5.55;82.17;98564.63;108987;1256;58753;-78
2024/03/25 05:56:38;;;;;;;11.00;8.40;;;;;;;5.55;81.88;98569.20;108967;1256;72584;-77
2024/03/25 05:59:05;;;;;;;11.80;7.40;;;;;;;5.56;81.86;98567.89;108853;1255;69036;-80
2024/03/25 06:01:34;;;;;;;9.90;6.80;;;;;;;5.68;81.51;98564.62;108583;1254;71427;-81
2024/03/25 06:04:01;;;;;;;11.80;7.20;;;;;;;5.78;81.07;98567.81;108794;1254;59073;-79
2024/03/25 06:06:29;;;;;;;10.40;7.80;;;;;;;5.77;81.10;98570.52;108677;1252;58900;-80
2024/03/25 06:08:56;;;;;;;12.10;8.50;;;;;;;5.77;81.38;98575.13;109011;1254;72560;-79
2024/03/25 06:11:24;;;;;;;13.40;8.20;;;;;;;5.78;81.77;98578.68;108708;1253;68202;-80
2024/03/25 06:13:51;;;;;;;14.40;10.20;;;;;;;5.81;81.63;98573.74;108827;1253;71086;-80
2024/03/25 06:16:18;;;;;;;17.50;10.70;;;;;;;5.93;81.37;98566.88;108964;1254;59566;-80
2024/03/25 06:18:46;;;;;;;15.20;9.70;;;;;;;6.03;81.34;98570.86;109129;1253;60083;-78
2024/03/25 06:21:13;;;;;;;13.10;9.40;;;;;;;6.03;81.04;98572.75;109095;1253;72629;-82
2024/03/25 06:23:41;;;;;;;16.30;10.50;;;;;;;6.01;80.94;98578.86;109360;1254;68706;-81
2024/03/25 06:26:08;;;;;;;13.50;9.90;;;;;;;6.01;81.35;98584.25;108531;1253;73608;-80
2024/03/25 06:28:35;;;;;;;10.50;7.10;;;;;;;6.02;81.21;98591.50;109194;1253;61409;-79
2024/03/25 06:36:35;;;;;;;9.50;6.90;;;;;;;6.08;81.15;98601.44;108699;1253;68722;-77
2024/03/25 06:39:02;;;;;;;16.20;6.20;;;;;;;6.07;81.22;98599.77;109129;1254;71457;-79
2024/03/25 06:41:30;;;;;;;9.10;6.70;;;;;;;6.07;81.30;98601.55;109113;1253;61217;-78
2024/03/25 06:43:57;;;;;;;8.50;5.90;;;;;;;6.11;81.79;98598.98;109061;1252;58799;-79
2024/03/25 06:46:25;;;;;;;9.10;6.40;;;;;;;6.22;80.88;98604.96;109237;1251;72423;-76
2024/03/25 06:48:52;;;;;;;9.70;6.90;;;;;;;6.29;80.73;98610.91;108985;1253;71375;-78
2024/03/25 06:51:19;;;;;;;12.20;8.10;;;;;;;6.32;81.18;98617.26;109220;1253;71591;-77
2024/03/25 06:53:47;;;;;;;11.40;7.70;;;;;;;6.37;81.54;98623.45;109263;1253;58071;-78
2024/03/25 06:56:16;;;;;;;9.80;7.50;;;;;;;6.42;81.56;98623.80;109047;1253;58844;-76
2024/03/25 06:58:43;;;;;;;15.00;8.80;;;;;;;6.47;81.14;98626.33;108188;1254;71653;-81
2024/03/25 07:01:14;;;;;;;10.20;7.10;;;;;;;6.59;80.81;98625.64;108395;1253;69233;-78
2024/03/25 07:03:41;;;;;;;15.00;8.20;;;;;;;6.69;80.73;98622.37;108571;1253;72780;-78
2024/03/25 07:06:08;;;;;;;11.90;8.00;;;;;;;6.75;80.85;98619.39;107958;1253;62265;-77
2024/03/25 07:08:36;;;;;;;8.30;6.20;;;;;;;6.83;80.90;98612.74;108886;1253;60403;-76
2024/03/25 07:11:03;;;;;;;7.10;5.20;;;;;;;6.93;80.08;98613.02;108516;1253;72574;-77
2024/03/25 07:13:31;;;;;;;6.50;5.20;;;;;;;7.09;79.65;98611.04;108831;1253;70767;-77
2024/03/25 07:15:58;;;;;;;6.60;4.20;;;;;;;7.24;79.09;98611.04;108512;1256;71395;-77
2024/03/25 07:18:25;;;;;;;6.10;4.30;;;;;;;7.35;78.92;98612.34;108731;1253;61227;-78
2024/03/25 07:20:54;;;;;;;6.90;4.40;;;;;;;7.43;78.63;98612.95;108899;1253;60567;-77
2024/03/25 07:23:21;;;;;;;5.90;4.50;;;;;;;7.52;78.22;98610.58;109059;1253;73133;-78
2024/03/25 07:25:48;;;;;;;8.20;5.20;;;;;;;7.66;77.82;98612.36;108691;1253;72515;-77
2024/03/25 07:28:16;;;;;;;6.00;4.50;;;;;;;7.85;77.54;98609.55;109192;1251;73670;-79
2024/03/25 07:30:43;;;;;;;6.00;3.50;;;;;;;8.05;76.69;98603.04;109090;1253;60256;-78
2024/03/25 07:33:11;;;;;;;6.20;3.50;;;;;;;8.15;75.79;98605.95;109082;1253;60938;-77
2024/03/25 07:35:38;;;;;;;5.40;4.10;;;;;;;8.22;75.11;98609.69;108828;1253;72684;-77
2024/03/25 07:38:05;;;;;;;4.80;3.60;;;;;;;8.29;74.52;98610.65;108927;1252;71193;-77
2024/03/25 07:40:32;;;;;;;8.40;3.30;;;;;;;8.33;73.54;98612.45;109018;1253;71754;-78
2024/03/25 07:43:00;;;;;;;5.80;3.50;;;;;;;8.33;73.18;98615.42;108652;1255;60463;-78
2024/03/25 07:45:27;;;;;;;6.60;3.50;;;;;;;8.34;72.96;98617.20;108444;1254;61222;-79
2024/03/25 07:47:55;;;;;;;5.50;3.10;;;;;;;8.41;72.73;98627.39;108418;1253;75745;-77
2024/03/25 07:50:24;;;;;;;8.10;3.70;;;;;;;8.53;71.93;98624.41;108742;1253;71216;-78
2024/03/25 07:52:52;;;;;;;8.10;3.40;;;;;;;8.62;72.00;98622.50;108693;1255;71524;-79
2024/03/25 07:55:19;;;;;;;5.50;3.70;;;;;;;8.67;72.20;98624.29;108429;1253;61824;-78
2024/03/25 07:57:47;;;;;;;5.60;3.60;;;;;;;8.74;71.79;98627.59;108475;1253;61996;-78
2024/03/25 08:00:14;;;;;;;6.60;4.40;;;;;;;8.74;71.63;98624.55;108363;1257;76310;-80
2024/03/25 08:02:42;;;;;;;6.70;4.00;;;;;;;8.76;71.89;98629.29;108860;1254;69326;-80
2024/03/25 08:05:09;;;;;;;6.20;3.10;;;;;;;8.78;71.24;98624.55;108885;1253;71395;-80
2024/03/25 08:07:37;;;;;;;6.40;3.60;;;;;;;8.87;70.19;98625.00;108755;1259;62595;-80
2024/03/25 08:10:05;;;;;;;6.40;3.40;;;;;;;8.91;70.15;98624.55;109038;1253;63667;-81
2024/03/25 08:12:33;;;;;;;8.70;4.10;;;;;;;8.89;70.31;98625.27;108597;1253;73456;-82
2024/03/25 08:15:00;;;;;;;5.30;3.40;;;;;;;8.92;70.24;98626.15;108531;1257;70270;-82
2024/03/25 08:17:27;;;;;;;5.40;4.20;;;;;;;8.92;69.75;98626.27;108642;1254;70896;-81
2024/03/25 08:19:55;;;;;;;4.70;3.20;;;;;;;8.93;69.36;98629.91;108943;1253;61587;-81
2024/03/25 08:22:23;;;;;;;6.00;3.80;;;;;;;8.97;69.41;98630.13;109128;1253;60509;-81
2024/03/25 08:24:52;;;;;;;10.90;4.20;;;;;;;9.02;69.63;98629.00;108451;1253;76692;-81
2024/03/25 08:27:19;;;;;;;5.00;3.20;;;;;;;9.07;69.53;98631.93;105950;1261;69863;-80
2024/03/25 08:29:47;;;;;;;5.80;3.60;;;;;;;9.09;69.08;98633.95;107714;1253;71786;-78
2024/03/25 08:32:14;;;;;;;5.50;3.20;;;;;;;9.10;69.37;98633.30;108341;1254;62496;-81
2024/03/25 08:34:42;;;;;;;9.10;3.30;;;;;;;9.25;69.02;98619.69;109100;1253;59222;-81
2024/03/25 08:37:09;;;;;;;4.20;2.70;;;;;;;9.42;68.37;98626.60;108857;1253;73479;-77
2024/03/25 08:39:36;;;;;;;5.80;3.60;;;;;;;9.48;68.48;98629.92;108341;1257;71343;-79
2024/03/25 08:42:04;;;;;;;4.10;3.40;;;;;;;9.54;68.27;98631.51;108589;1253;73060;-79
2024/03/25 08:44:31;;;;;;;6.50;3.60;;;;;;;9.64;68.31;98626.02;108414;1257;61200;-78
2024/03/25 08:46:59;;;;;;;4.50;3.10;;;;;;;9.78;68.16;98627.17;107341;1253;61279;-77
2024/03/25 08:49:26;;;;;;;6.40;3.60;;;;;;;9.90;67.37;98626.36;106303;1254;75031;-79
2024/03/25 08:51:54;;;;;;;6.80;3.80;;;;;;;9.95;67.47;98625.32;106348;1256;69071;-78
2024/03/25 08:54:21;;;;;;;5.60;3.60;;;;;;;10.01;67.29;98622.51;106068;1257;72816;-79
2024/03/25 08:56:48;;;;;;;6.50;3.90;;;;;;;10.08;68.03;98618.45;106053;1253;62967;-78
2024/03/25 08:59:15;;;;;;;4.40;3.00;;;;;;;10.17;67.91;98618.17;106147;1256;63285;-81
2024/03/25 09:01:43;;;;;;;6.50;3.00;;;;;;;10.29;66.62;98619.90;105873;1261;74897;-79
2024/03/25 09:04:10;;;;;;;3.80;3.20;;;;;;;10.46;66.27;98618.98;105937;1254;70411;-78
2024/03/25 09:06:53;;;;;;;7.10;3.50;;;;;;;10.62;65.89;98622.45;105980;1259;74944;-84
2024/03/25 09:12:07;;;;;;;5.90;3.10;;;;;;;10.79;65.14;98623.49;106379;1253;61406;-83
2024/03/25 09:14:34;;;;;;;6.40;3.20;;;;;;;10.81;64.54;98623.91;106740;1257;74998;-84
2024/03/25 09:17:01;;;;;;;5.80;3.30;;;;;;;10.84;64.19;98622.30;106575;1254;72453;-79
2024/03/25 09:19:29;;;;;;;5.50;3.70;;;;;;;10.89;63.60;98617.04;106222;1259;74576;-84
2024/03/25 09:21:56;;;;;;;5.90;3.10;;;;;;;10.93;62.68;98615.05;106516;1259;61311;-82
2024/03/25 09:24:24;;;;;;;7.70;4.50;;;;;;;10.98;63.31;98606.41;106969;1254;61422;-80
2024/03/25 09:26:51;;;;;;;7.20;5.10;;;;;;;11.12;62.84;98605.92;108051;1256;74456;-81
2024/03/25 09:29:19;;;;;;;9.60;6.00;;;;;;;11.28;62.64;98604.92;108101;1253;71208;-85
2024/03/25 09:31:46;;;;;;;5.60;4.60;;;;;;;11.43;63.02;98611.14;109122;1254;73687;-83
2024/03/25 09:34:14;;;;;;;7.50;4.50;;;;;;;11.54;61.24;98604.07;109150;1253;59089;-87
2024/03/25 09:36:42;;;;;;;5.60;3.90;;;;;;;11.59;61.26;98605.42;108009;1260;61324;-83
2024/03/25 09:39:09;;;;;;;4.80;3.10;;;;;;;11.63;60.38;98612.96;106805;1252;75488;-81
2024/03/25 09:41:37;;;;;;;4.10;2.60;;;;;;;11.67;60.20;98611.63;106488;1253;71264;-79
2024/03/25 09:44:05;;;;;;;6.50;3.20;;;;;;;11.70;59.88;98611.46;106168;1260;71830;-79
2024/03/25 09:46:34;;;;;;;5.10;2.70;;;;;;;11.70;59.43;98605.20;106478;1259;61221;-84
2024/03/25 09:49:05;;;;;;;6.30;3.30;;;;;;;11.67;59.62;98597.05;106747;1254;59327;-81
2024/03/25 09:51:32;;;;;;;5.20;2.80;;;;;;;11.65;59.94;98593.04;106925;1260;76889;-82
2024/03/25 09:53:59;;;;;;;5.90;3.20;;;;;;;11.66;59.49;98596.23;107127;1257;71279;-79
2024/03/25 09:56:27;;;;;;;5.00;2.80;;;;;;;11.63;59.12;98599.33;107477;1257;71584;-80
2024/03/25 09:58:57;;;;;;;4.70;2.40;;;;;;;11.61;58.58;98598.98;107049;1254;62300;-81
2024/03/25 10:01:24;;;;;;;7.00;2.90;;;;;;;11.59;58.65;98601.27;106578;1255;60213;-81
2024/03/25 10:03:51;;;;;;;5.50;3.20;;;;;;;11.55;58.69;98605.11;106995;1254;74850;-82
2024/03/25 10:06:19;;;;;;;6.40;3.70;;;;;;;11.46;57.71;98602.48;107143;1257;71812;-81
2024/03/25 10:08:46;;;;;;;4.40;3.00;;;;;;;11.31;58.31;98602.10;106861;1255;75230;-81
2024/03/25 10:11:15;;;;;;;4.90;2.70;;;;;;;11.19;58.57;98599.95;106766;1254;62132;-81
2024/03/25 10:13:42;;;;;;;7.00;2.70;;;;;;;11.08;57.99;98601.18;106627;1253;61272;-83
2024/03/25 10:16:10;;;;;;;5.50;2.80;;;;;;;11.00;57.38;98601.73;106667;1255;76063;-82
2024/03/25 10:18:37;;;;;;;5.10;3.10;;;;;;;10.89;56.95;98599.01;106358;1253;70338;-81
2024/03/25 10:21:04;;;;;;;8.30;2.70;;;;;;;10.80;57.33;98595.02;106160;1257;73626;-81
2024/03/25 10:23:36;;;;;;;5.90;2.80;;;;;;;10.80;58.12;98593.29;106487;1259;61963;-78
2024/03/25 10:26:04;;;;;;;6.10;2.30;;;;;;;10.86;58.20;98593.27;107738;1253;61196;-81
2024/03/25 10:28:31;;;;;;;5.20;2.80;;;;;;;10.92;58.53;98587.13;108549;1253;74667;-82
2024/03/25 10:31:05;;;;;;;4.10;3.00;;;;;;;11.04;58.79;98584.23;107817;1254;70814;-82
2024/03/25 10:33:33;;;;;;;4.30;2.60;;;;;;;11.14;58.25;98585.21;106618;1254;73608;-81
2024/03/25 10:36:00;;;;;;;5.90;2.50;;;;;;;11.20;57.72;98584.04;106307;1256;61388;-81
2024/03/25 10:38:28;;;;;;;6.20;4.00;;;;;;;11.24;58.24;98580.57;106487;1259;61249;-79
2024/03/25 10:40:55;;;;;;;4.20;2.40;;;;;;;11.28;58.36;98575.75;106364;1254;74619;-79
2024/03/25 10:43:22;;;;;;;5.10;2.60;;;;;;;11.29;57.65;98571.71;106493;1257;70023;-82
2024/03/25 10:45:51;;;;;;;7.10;2.50;;;;;;;11.27;57.29;98566.63;106926;1254;72405;-79
2024/03/25 10:48:28;;;;;;;6.10;2.80;;;;;;;11.20;56.39;98562.96;108311;1255;61318;-81
2024/03/25 10:50:56;;;;;;;4.90;2.70;;;;;;;11.15;56.91;98565.74;108062;1253;61194;-83
2024/03/25 10:53:24;;;;;;;4.60;2.70;;;;;;;11.16;57.06;98562.56;108543;1254;73408;-80
2024/03/25 10:55:56;;;;;;;7.10;2.80;;;;;;;11.21;56.62;98565.31;108562;1257;71914;-83
2024/03/25 10:58:23;;;;;;;4.50;2.80;;;;;;;11.17;56.29;98562.60;106875;1259;72836;-79
2024/03/25 11:00:55;;;;;;;4.40;2.40;;;;;;;11.09;55.80;98561.59;107373;1254;62499;-80
2024/03/25 11:03:23;;;;;;;4.30;2.40;;;;;;;10.94;55.94;98558.89;106273;1261;61199;-78
2024/03/25 11:05:51;;;;;;;8.50;2.80;;;;;;;10.83;56.66;98556.41;106685;1254;74940;-84
2024/03/25 11:08:19;;;;;;;10.00;2.90;;;;;;;10.77;56.83;98556.30;107013;1254;71185;-84
2024/03/25 11:10:46;;;;;;;4.40;2.70;;;;;;;10.71;56.74;98554.11;106245;1257;74669;-84
2024/03/25 11:13:17;;;;;;;4.40;3.20;;;;;;;10.57;57.00;98554.66;106423;1259;61251;-79
2024/03/25 11:15:45;;;;;;;5.80;3.00;;;;;;;10.46;57.18;98554.96;105887;1260;62292;-78
2024/03/25 11:18:13;;;;;;;3.40;2.30;;;;;;;10.34;57.17;98552.86;106274;1254;75587;-82
2024/03/25 11:20:42;;;;;;;6.70;2.60;;;;;;;10.26;57.19;98553.55;106257;1260;70700;-80
2024/03/25 11:23:13;;;;;;;5.90;3.00;;;;;;;10.20;58.15;98554.53;107931;1261;74459;-83
2024/03/25 11:25:41;;;;;;;6.00;3.40;;;;;;;10.17;57.51;98550.23;108806;1253;61028;-82
2024/03/25 11:28:09;;;;;;;6.90;3.00;;;;;;;10.12;57.07;98547.59;106782;1259;61092;-80
2024/03/25 11:30:37;;;;;;;4.60;2.50;;;;;;;10.08;56.69;98544.01;107424;1254;75526;-81
2024/03/25 11:33:04;;;;;;;6.50;2.60;;;;;;;10.02;56.56;98544.02;106380;1260;72852;-82
2024/03/25 11:35:38;;;;;;;4.90;2.40;;;;;;;9.98;56.59;98541.13;106251;1260;75267;-83
2024/03/25 11:38:05;;;;;;;;;;;;;;;9.96;56.35;98535.65;106650;1257;61327;-83
2024/03/25 11:40:32;;;;;;;6.00;2.70;;;;;;;9.89;56.38;98537.06;106391;1260;62154;-83